Time;durP1;ratioP1;P1;durP2;ratioP2;P2;SDS_P1;SDS_P2;PMS_P1;PMS_P2;Temp;Humidity;BMP_temperature;BMP_pressure;BME280_temperature;BME280_humidity;BME280_pressure;Samples;Min_cycle;Max_cycle;Signal;HPM_P1;HPM_P2
2021/05/14 00:01:40;;;;;;;10.60;1.70;;;;;;;7.41;49.46;100711.78;4982219;28;20049;-70
2021/05/14 00:04:06;;;;;;;5.60;2.13;;;;;;;6.98;50.34;100705.22;4988859;28;20057;-70
2021/05/14 00:06:31;;;;;;;7.20;1.45;;;;;;;7.29;49.74;100707.81;4966720;28;20112;-70
2021/05/14 00:08:57;;;;;;;2.90;1.05;;;;;;;7.64;49.08;100713.72;4984853;28;20042;-70
2021/05/14 00:11:22;;;;;;;6.53;1.15;;;;;;;7.60;48.62;100712.13;4984705;28;20476;-70
2021/05/14 00:13:47;;;;;;;4.82;1.60;;;;;;;7.72;49.26;100710.00;5000470;28;20038;-70
2021/05/14 00:16:13;;;;;;;8.63;3.20;;;;;;;7.65;48.95;100710.25;4974961;28;20049;-69
2021/05/14 00:18:38;;;;;;;7.20;1.77;;;;;;;7.59;48.97;100710.44;4987331;28;20030;-69
2021/05/14 00:21:04;;;;;;;8.98;2.13;;;;;;;7.67;48.99;100703.25;4983139;28;20058;-70
2021/05/14 00:23:30;;;;;;;4.82;1.55;;;;;;;7.61;49.10;100708.63;4998772;28;20034;-70
2021/05/14 00:25:55;;;;;;;5.40;1.50;;;;;;;7.36;49.49;100713.69;4985176;28;20041;-69
2021/05/14 00:28:21;;;;;;;8.18;1.52;;;;;;;7.62;49.34;100712.94;4998379;28;20049;-72
2021/05/14 00:30:46;;;;;;;3.85;2.30;;;;;;;7.51;49.25;100700.22;4982221;28;20037;-70
2021/05/14 00:33:13;;;;;;;7.85;1.77;;;;;;;7.69;48.78;100694.50;4983561;28;20117;-69
2021/05/14 00:35:38;;;;;;;4.72;1.67;;;;;;;7.60;49.24;100692.19;4984277;28;20049;-70
2021/05/14 00:38:04;;;;;;;3.13;1.88;;;;;;;7.73;48.94;100696.13;4983414;28;20778;-69
2021/05/14 00:40:29;;;;;;;5.75;2.08;;;;;;;7.67;48.70;100698.06;4987446;28;20042;-71
2021/05/14 00:42:55;;;;;;;6.35;1.85;;;;;;;7.67;49.08;100693.69;4983878;28;20038;-69
2021/05/14 00:45:20;;;;;;;4.88;1.65;;;;;;;7.64;49.28;100693.75;4985637;28;20042;-70
2021/05/14 00:47:46;;;;;;;7.82;1.92;;;;;;;7.78;48.94;100689.88;4986803;28;20030;-70
2021/05/14 00:50:11;;;;;;;4.50;1.83;;;;;;;7.85;48.21;100691.44;4986499;28;20643;-69
2021/05/14 00:52:37;;;;;;;6.65;2.58;;;;;;;7.90;48.71;100690.38;4987454;28;20040;-69
2021/05/14 00:55:04;;;;;;;7.22;2.40;;;;;;;7.84;48.77;100689.72;4987091;28;20090;-70
2021/05/14 00:57:31;;;;;;;8.10;2.53;;;;;;;7.93;48.62;100689.41;4989444;28;20058;-68
2021/05/14 00:59:57;;;;;;;8.10;2.63;;;;;;;7.92;48.24;100687.72;4987004;28;20939;-69
2021/05/14 01:02:22;;;;;;;11.48;3.40;;;;;;;7.82;48.67;100686.28;4987254;28;20049;-69
2021/05/14 01:04:48;;;;;;;3.83;2.08;;;;;;;7.74;48.42;100682.19;4987119;28;20041;-69
2021/05/14 01:07:14;;;;;;;5.45;2.13;;;;;;;7.70;49.13;100685.78;4971497;28;20125;-69
2021/05/14 01:09:41;;;;;;;4.53;2.42;;;;;;;7.67;48.89;100685.88;5001020;28;20030;-68
2021/05/14 01:12:08;;;;;;;4.75;2.60;;;;;;;7.74;48.76;100684.78;5001459;28;20046;-69
2021/05/14 01:14:34;;;;;;;7.55;2.05;;;;;;;7.69;48.97;100684.09;4996077;28;20038;-71
2021/05/14 01:16:59;;;;;;;7.25;2.95;;;;;;;7.82;48.67;100683.69;4977167;28;20096;-69
2021/05/14 01:19:25;;;;;;;9.35;2.63;;;;;;;7.92;48.59;100685.97;5002483;28;20110;-69
2021/05/14 01:21:51;;;;;;;8.15;3.00;;;;;;;7.94;48.47;100681.56;4986027;28;20073;-70
2021/05/14 01:24:17;;;;;;;7.05;2.75;;;;;;;7.86;48.53;100680.09;4986951;28;20066;-69
2021/05/14 01:26:43;;;;;;;7.85;2.00;;;;;;;7.77;48.62;100677.78;4984806;28;20042;-69
2021/05/14 01:29:12;;;;;;;4.28;2.08;;;;;;;7.86;48.67;100672.28;4985594;28;20038;-69
2021/05/14 01:31:38;;;;;;;6.95;2.13;;;;;;;7.89;48.33;100672.19;4982957;28;20121;-69
2021/05/14 01:34:07;;;;;;;4.82;2.42;;;;;;;7.70;49.04;100671.94;4987434;28;20026;-71
2021/05/14 01:36:38;;;;;;;6.68;2.22;;;;;;;7.75;49.07;100675.22;4984648;28;20407;-71
2021/05/14 01:39:06;;;;;;;11.00;2.40;;;;;;;7.83;48.78;100673.25;4983410;28;20038;-72
2021/05/14 01:41:32;;;;;;;9.73;2.25;;;;;;;7.81;48.65;100680.25;4999233;28;20062;-68
2021/05/14 01:43:57;;;;;;;8.75;3.70;;;;;;;7.79;48.96;100676.00;5000293;28;20038;-71
2021/05/14 01:46:23;;;;;;;6.28;3.30;;;;;;;7.88;48.90;100673.09;4999796;28;20117;-69
2021/05/14 01:48:49;;;;;;;6.05;2.17;;;;;;;7.93;48.70;100673.78;4984877;28;20038;-69
2021/05/14 01:51:18;;;;;;;5.22;3.15;;;;;;;7.62;49.20;100668.72;4998972;28;20464;-70
2021/05/14 01:53:43;;;;;;;9.48;2.72;;;;;;;7.76;48.97;100678.69;4985039;28;20503;-68
2021/05/14 01:56:09;;;;;;;7.40;2.95;;;;;;;7.60;49.65;100670.50;4967012;28;20046;-70
2021/05/14 01:58:35;;;;;;;9.48;2.85;;;;;;;7.56;49.95;100669.75;4985344;28;20037;-69
2021/05/14 02:01:00;;;;;;;11.80;2.92;;;;;;;7.30;49.99;100668.75;4973725;28;20488;-69
2021/05/14 02:03:26;;;;;;;13.30;3.25;;;;;;;7.59;49.88;100672.25;4998974;28;20109;-69
2021/05/14 02:05:51;;;;;;;9.30;2.90;;;;;;;7.59;49.80;100664.44;4983246;28;20072;-70
2021/05/14 02:08:17;;;;;;;6.13;2.60;;;;;;;7.54;49.66;100668.94;4983990;28;20121;-68
2021/05/14 02:10:42;;;;;;;8.95;3.05;;;;;;;7.69;49.81;100660.69;4984087;28;20893;-69
2021/05/14 02:13:08;;;;;;;6.57;3.13;;;;;;;7.73;49.35;100669.22;4995305;28;20109;-70
2021/05/14 02:15:33;;;;;;;9.35;3.30;;;;;;;7.56;49.71;100668.88;4970810;28;20038;-69
2021/05/14 02:17:59;;;;;;;12.48;3.03;;;;;;;7.54;50.06;100676.72;4999725;28;20057;-69
2021/05/14 02:20:25;;;;;;;11.38;3.63;;;;;;;7.65;49.85;100672.06;4985051;28;20042;-69
2021/05/14 02:22:51;;;;;;;11.00;2.53;;;;;;;7.43;49.98;100671.00;4986245;28;20138;-69
2021/05/14 02:25:17;;;;;;;7.82;2.15;;;;;;;7.73;49.83;100672.69;4984341;28;20034;-69
2021/05/14 02:27:42;;;;;;;8.70;2.38;;;;;;;7.79;49.21;100656.03;4970984;28;20145;-70
2021/05/14 02:30:09;;;;;;;9.35;3.05;;;;;;;7.77;49.81;100662.19;4988738;28;20443;-69
2021/05/14 02:32:34;;;;;;;8.68;2.53;;;;;;;7.76;49.70;100660.47;4968978;28;20042;-69
2021/05/14 02:35:00;;;;;;;6.18;1.60;;;;;;;7.81;49.32;100658.59;4984596;28;20038;-69
2021/05/14 02:37:25;;;;;;;5.80;2.33;;;;;;;7.76;49.50;100660.47;4999049;28;20108;-71
2021/05/14 02:39:51;;;;;;;8.30;1.83;;;;;;;7.76;49.41;100660.47;4983940;28;21936;-69
2021/05/14 02:42:17;;;;;;;6.85;1.67;;;;;;;7.73;49.48;100664.91;4982907;28;20472;-70
2021/05/14 02:44:42;;;;;;;7.18;1.88;;;;;;;7.81;49.15;100659.44;4982181;28;20061;-70
2021/05/14 02:47:08;;;;;;;6.65;2.22;;;;;;;7.71;49.19;100664.09;4966686;28;20038;-70
2021/05/14 02:49:35;;;;;;;9.15;2.30;;;;;;;7.83;49.66;100659.41;4982766;28;20038;-68
2021/05/14 02:52:01;;;;;;;12.30;2.28;;;;;;;7.88;49.45;100654.88;4998710;28;20511;-69
2021/05/14 02:54:26;;;;;;;12.68;2.58;;;;;;;7.69;49.35;100662.41;4998080;28;20496;-69
2021/05/14 02:56:52;;;;;;;12.95;2.65;;;;;;;7.82;49.42;100662.88;4982786;28;20030;-68
2021/05/14 02:59:20;;;;;;;5.45;1.50;;;;;;;7.79;49.58;100656.03;4983869;28;20158;-70
2021/05/14 03:01:45;;;;;;;12.40;2.90;;;;;;;7.51;49.67;100664.66;4970496;28;20046;-69
2021/05/14 03:04:11;;;;;;;7.85;2.55;;;;;;;7.68;49.74;100661.56;4984728;28;20041;-69
2021/05/14 03:06:36;;;;;;;14.35;2.20;;;;;;;7.70;49.50;100656.31;4983818;28;20848;-69
2021/05/14 03:09:02;;;;;;;9.38;2.25;;;;;;;7.64;49.51;100656.50;4984284;28;20706;-69
2021/05/14 03:11:28;;;;;;;6.07;2.08;;;;;;;7.68;49.36;100656.38;5005467;28;20058;-70
2021/05/14 03:13:53;;;;;;;10.30;2.42;;;;;;;7.44;50.11;100652.72;4990417;28;20038;-68
2021/05/14 03:16:20;;;;;;;13.07;2.90;;;;;;;7.45;49.79;100654.44;4983779;28;20045;-69
2021/05/14 03:18:45;;;;;;;8.30;2.05;;;;;;;7.63;49.90;100650.47;4998589;28;20476;-69
2021/05/14 03:21:11;;;;;;;9.35;1.63;;;;;;;7.77;49.71;100656.97;4982597;28;20041;-69
2021/05/14 03:23:37;;;;;;;3.28;1.83;;;;;;;7.69;49.33;100650.28;4998608;28;20049;-71
2021/05/14 03:26:03;;;;;;;8.73;1.80;;;;;;;7.72;49.46;100657.13;4983221;28;20030;-70
2021/05/14 03:28:28;;;;;;;8.55;2.90;;;;;;;7.57;49.57;100649.81;4997842;28;20046;-70
2021/05/14 03:30:54;;;;;;;15.38;2.90;;;;;;;7.79;49.29;100649.97;4984148;28;20077;-69
2021/05/14 03:33:20;;;;;;;8.57;2.13;;;;;;;7.65;49.63;100651.25;4966264;28;20404;-70
2021/05/14 03:35:50;;;;;;;11.10;1.98;;;;;;;7.64;49.39;100652.16;4998714;28;20169;-70
2021/05/14 03:38:17;;;;;;;8.52;2.40;;;;;;;7.68;49.36;100651.16;4981750;28;20038;-70
2021/05/14 03:40:46;;;;;;;9.52;2.70;;;;;;;7.57;49.39;100649.81;4986046;28;20030;-69
2021/05/14 03:43:11;;;;;;;9.73;2.50;;;;;;;7.47;49.83;100650.06;4982715;28;20061;-69
2021/05/14 03:45:37;;;;;;;9.45;2.25;;;;;;;7.41;50.22;100639.00;4982743;28;20072;-70
2021/05/14 03:48:18;;;;;;;7.15;2.10;;;;;;;7.28;50.41;100641.94;4984563;28;20065;-71
2021/05/14 03:50:44;;;;;;;8.65;2.35;;;;;;;7.39;50.02;100635.59;4982061;28;20065;-70
2021/05/14 03:53:09;;;;;;;12.02;2.67;;;;;;;7.30;50.18;100634.94;4981961;28;20061;-70
2021/05/14 03:55:35;;;;;;;5.80;2.63;;;;;;;7.43;49.91;100635.44;4982574;28;20038;-70
2021/05/14 03:58:00;;;;;;;7.45;2.20;;;;;;;7.46;50.35;100631.88;4983541;28;20506;-69
2021/05/14 04:00:26;;;;;;;10.07;3.92;;;;;;;7.61;49.89;100628.84;4972233;28;20053;-70
2021/05/14 04:02:54;;;;;;;9.98;2.60;;;;;;;7.64;49.69;100633.09;4981932;28;20034;-70
2021/05/14 04:05:20;;;;;;;7.90;2.50;;;;;;;7.66;49.68;100634.75;4999146;28;20522;-70
2021/05/14 04:07:47;;;;;;;9.82;3.53;;;;;;;7.74;49.29;100632.75;4984209;28;20031;-69
2021/05/14 04:10:17;;;;;;;6.90;2.30;;;;;;;7.70;49.57;100631.16;4989925;28;20069;-69
2021/05/14 04:15:27;;;;;;;12.60;3.60;;;;;;;7.56;49.57;100627.28;4982057;28;20113;-69
2021/05/14 04:17:53;;;;;;;8.63;3.20;;;;;;;7.56;49.56;100622.94;4998070;28;20042;-70
2021/05/14 04:20:18;;;;;;;3.17;2.28;;;;;;;7.55;49.63;100629.03;4985297;28;20034;-69
2021/05/14 04:22:44;;;;;;;10.70;2.78;;;;;;;7.61;50.09;100625.41;4986983;28;20515;-68
2021/05/14 04:25:09;;;;;;;12.80;2.17;;;;;;;7.73;50.25;100619.78;4986813;28;20026;-70
2021/05/14 04:27:35;;;;;;;7.05;2.03;;;;;;;7.82;49.39;100626.44;5001834;28;20038;-69
2021/05/14 04:30:01;;;;;;;9.60;2.30;;;;;;;7.63;49.86;100615.81;4984888;28;20030;-69
2021/05/14 04:32:26;;;;;;;13.73;2.83;;;;;;;7.68;49.62;100617.34;4970731;28;20048;-70
2021/05/14 04:34:54;;;;;;;15.43;2.78;;;;;;;7.79;49.60;100613.56;4986655;28;20387;-70
2021/05/14 04:37:19;;;;;;;8.00;2.75;;;;;;;7.68;49.41;100614.75;5002072;28;20536;-70
2021/05/14 04:39:44;;;;;;;9.73;3.47;;;;;;;7.61;49.60;100609.78;4985956;28;20065;-69
2021/05/14 04:42:11;;;;;;;9.50;3.03;;;;;;;7.82;49.72;100608.25;4986530;28;20062;-69
2021/05/14 04:44:36;;;;;;;10.38;2.63;;;;;;;7.82;49.36;100608.25;4969528;28;20379;-70
2021/05/14 04:47:02;;;;;;;6.28;2.13;;;;;;;7.93;49.28;100613.94;4969264;28;20447;-69
2021/05/14 04:49:28;;;;;;;8.50;2.63;;;;;;;8.10;49.15;100613.38;4986049;28;20042;-69
2021/05/14 04:51:54;;;;;;;13.68;2.33;;;;;;;8.22;49.21;100617.31;5000876;28;20061;-69
2021/05/14 04:54:20;;;;;;;11.18;2.47;;;;;;;8.28;48.40;100619.72;4985272;28;20399;-69
2021/05/14 04:56:46;;;;;;;6.90;2.13;;;;;;;8.37;48.51;100611.59;4986472;28;20177;-67
2021/05/14 04:59:11;;;;;;;12.05;2.08;;;;;;;8.39;48.70;100615.00;4985148;28;20788;-69
2021/05/14 05:01:39;;;;;;;6.20;1.98;;;;;;;8.43;48.47;100606.16;4985269;28;20026;-71
2021/05/14 05:04:04;;;;;;;6.88;2.22;;;;;;;8.47;48.56;100610.38;4986538;28;20042;-71
2021/05/14 05:06:31;;;;;;;10.38;2.53;;;;;;;8.59;48.31;100616.91;5000540;28;20042;-69
2021/05/14 05:08:59;;;;;;;4.63;2.35;;;;;;;8.75;48.38;100627.63;4991925;28;20057;-70
2021/05/14 05:11:24;;;;;;;11.60;2.90;;;;;;;8.74;47.86;100620.75;4988199;28;20496;-69
2021/05/14 05:13:49;;;;;;;14.15;3.33;;;;;;;8.69;48.17;100620.84;4985337;28;20037;-71
2021/05/14 05:16:15;;;;;;;12.60;3.50;;;;;;;8.71;48.12;100619.06;4984792;28;20030;-69
2021/05/14 05:18:40;;;;;;;6.78;3.42;;;;;;;8.79;48.20;100623.19;4985030;28;20855;-69
2021/05/14 05:21:06;;;;;;;4.03;2.85;;;;;;;8.74;48.15;100623.34;4979458;28;20099;-69
2021/05/14 05:23:31;;;;;;;11.95;3.25;;;;;;;8.80;47.72;100625.72;4986697;28;20062;-69
2021/05/14 05:25:57;;;;;;;3.97;2.17;;;;;;;8.96;48.07;100631.19;4968316;28;20041;-71
2021/05/14 05:28:29;;;;;;;12.43;3.03;;;;;;;8.97;47.80;100623.34;4973593;28;20779;-69
2021/05/14 05:30:55;;;;;;;17.38;3.08;;;;;;;8.88;47.83;100628.06;4999603;28;20038;-69
2021/05/14 05:33:21;;;;;;;12.23;2.92;;;;;;;8.82;48.04;100634.31;4984993;28;20104;-69
2021/05/14 05:35:46;;;;;;;8.85;2.45;;;;;;;8.76;48.53;100637.16;4983991;28;20062;-69
2021/05/14 05:38:19;;;;;;;8.23;2.22;;;;;;;8.43;48.82;100645.25;5000011;28;20046;-70
2021/05/14 05:40:45;;;;;;;9.57;2.90;;;;;;;8.33;48.95;100647.28;4984938;28;20473;-69
2021/05/14 05:43:11;;;;;;;7.32;2.80;;;;;;;8.59;48.15;100637.72;4984984;28;20084;-69
2021/05/14 05:45:37;;;;;;;14.10;3.53;;;;;;;8.47;48.96;100649.44;4985394;28;20166;-70
2021/05/14 05:48:02;;;;;;;18.17;3.67;;;;;;;8.67;48.17;100651.34;4983147;28;20089;-69
2021/05/14 05:50:28;;;;;;;10.27;3.25;;;;;;;8.58;48.49;100651.66;4983520;28;20042;-69
2021/05/14 05:52:55;;;;;;;12.50;3.17;;;;;;;8.72;47.91;100652.06;4999828;28;20037;-70
2021/05/14 05:55:21;;;;;;;9.63;2.90;;;;;;;9.03;47.35;100655.28;4984284;28;20066;-69
2021/05/14 05:57:47;;;;;;;11.27;2.83;;;;;;;8.79;47.79;100657.91;4984722;28;20622;-69
2021/05/14 06:00:13;;;;;;;8.13;2.95;;;;;;;8.87;47.34;100658.44;4982933;28;20038;-69
2021/05/14 06:02:38;;;;;;;8.00;2.35;;;;;;;8.97;46.87;100659.00;4999554;28;20069;-69
2021/05/14 06:05:05;;;;;;;10.65;2.97;;;;;;;9.14;46.92;100655.75;4973572;28;20069;-69
2021/05/14 06:07:30;;;;;;;10.50;2.53;;;;;;;9.05;46.81;100658.69;4985425;28;20400;-69
2021/05/14 06:09:56;;;;;;;27.48;3.58;;;;;;;9.23;46.84;100662.38;4990778;28;20046;-69
2021/05/14 06:12:22;;;;;;;9.50;2.72;;;;;;;9.15;46.79;100665.28;4967983;28;20700;-69
2021/05/14 06:14:49;;;;;;;14.65;3.42;;;;;;;9.36;46.51;100661.84;4974199;28;20034;-69
2021/05/14 06:17:14;;;;;;;9.48;2.60;;;;;;;9.45;46.46;100654.56;4985026;28;20061;-69
2021/05/14 06:19:45;;;;;;;8.95;2.85;;;;;;;9.17;46.65;100664.31;4982540;28;20038;-69
2021/05/14 06:22:11;;;;;;;14.10;3.07;;;;;;;8.92;46.43;100664.38;4966749;28;20137;-69
2021/05/14 06:24:37;;;;;;;10.05;2.25;;;;;;;9.35;45.65;100665.38;4982171;28;20372;-68
2021/05/14 06:27:03;;;;;;;7.43;1.60;;;;;;;9.36;45.06;100661.84;4984324;28;20038;-70
2021/05/14 06:29:28;;;;;;;17.75;2.63;;;;;;;9.55;45.19;100671.59;4984268;28;20042;-69
2021/05/14 06:31:54;;;;;;;10.27;1.65;;;;;;;9.51;44.80;100685.66;4998618;28;20080;-68
2021/05/14 06:34:19;;;;;;;17.65;2.75;;;;;;;9.37;44.98;100671.38;4988034;28;20040;-68
2021/05/14 06:36:45;;;;;;;11.40;3.00;;;;;;;9.62;44.91;100673.03;4965888;28;20073;-70
2021/05/14 06:39:10;;;;;;;9.95;2.58;;;;;;;9.53;45.34;100674.25;4999395;28;20034;-68
2021/05/14 06:41:36;;;;;;;13.85;2.40;;;;;;;9.63;45.39;100674.72;5001020;28;20041;-69
2021/05/14 06:44:01;;;;;;;12.77;2.10;;;;;;;9.50;44.99;100681.31;4986624;28;20037;-68
2021/05/14 06:46:27;;;;;;;12.93;1.73;;;;;;;9.42;45.37;100686.00;4983387;28;20038;-69
2021/05/14 06:48:52;;;;;;;9.25;2.10;;;;;;;9.24;45.17;100687.56;4984762;28;20038;-69
2021/05/14 06:51:18;;;;;;;15.13;2.47;;;;;;;9.48;44.80;100696.22;4982135;28;20491;-69
2021/05/14 06:53:44;;;;;;;7.70;1.42;;;;;;;9.70;44.60;100693.59;4982968;28;20108;-69
2021/05/14 06:56:10;;;;;;;6.55;1.63;;;;;;;9.51;44.51;100691.72;4984191;28;20043;-69
2021/05/14 06:58:35;;;;;;;8.95;2.25;;;;;;;9.78;44.06;100694.16;4983321;28;20053;-69
2021/05/14 07:01:01;;;;;;;12.18;2.03;;;;;;;9.73;44.09;100691.72;4996705;28;20037;-69
2021/05/14 07:03:26;;;;;;;9.60;1.65;;;;;;;9.79;43.58;100696.75;4998042;28;20046;-69
2021/05/14 07:05:52;;;;;;;8.73;2.08;;;;;;;9.58;44.03;100702.75;4983635;28;20018;-69
2021/05/14 07:08:18;;;;;;;5.57;2.10;;;;;;;9.70;44.57;100704.03;4993863;28;20129;-70
2021/05/14 07:10:43;;;;;;;6.78;1.60;;;;;;;9.93;43.42;100700.56;4983697;28;20719;-70
2021/05/14 07:13:09;;;;;;;9.05;1.85;;;;;;;9.62;44.02;100700.91;4981186;28;20041;-69
2021/05/14 07:15:34;;;;;;;12.93;1.85;;;;;;;9.64;44.27;100702.53;4982625;28;20066;-69
2021/05/14 07:18:00;;;;;;;8.80;1.63;;;;;;;9.80;43.88;100706.28;4981464;28;20545;-69
2021/05/14 07:20:26;;;;;;;14.50;2.33;;;;;;;9.99;44.19;100709.00;4983330;28;20105;-68
2021/05/14 07:22:53;;;;;;;15.70;3.65;;;;;;;10.03;43.89;100709.72;4967581;28;20096;-69
2021/05/14 07:25:19;;;;;;;20.00;4.63;;;;;;;10.13;43.29;100705.00;4980098;28;20046;-68
2021/05/14 07:27:45;;;;;;;9.30;1.40;;;;;;;10.29;42.77;100718.28;4981611;28;20407;-69
2021/05/14 07:30:12;;;;;;;9.27;2.08;;;;;;;9.99;43.61;100719.47;4983094;28;20084;-68
2021/05/14 07:32:39;;;;;;;7.32;1.67;;;;;;;10.26;43.17;100713.16;4982157;28;20038;-69
2021/05/14 07:35:06;;;;;;;8.70;1.65;;;;;;;10.35;43.67;100715.41;4981641;28;20069;-68
2021/05/14 07:37:32;;;;;;;12.20;2.25;;;;;;;9.82;44.12;100716.66;4981540;28;20488;-68
2021/05/14 07:39:58;;;;;;;11.40;2.65;;;;;;;9.72;44.66;100710.94;4998203;28;20084;-69
2021/05/14 07:42:23;;;;;;;6.38;1.98;;;;;;;9.86;44.64;100712.19;4982348;28;20049;-68
2021/05/14 07:44:49;;;;;;;16.60;2.30;;;;;;;9.88;44.39;100712.94;4997673;28;20054;-68
2021/05/14 07:47:14;;;;;;;9.65;1.70;;;;;;;10.28;44.50;100716.56;4982053;28;20066;-68
2021/05/14 07:49:40;;;;;;;7.38;2.08;;;;;;;10.41;42.72;100715.13;4982747;28;20411;-68
2021/05/14 07:52:06;;;;;;;12.18;1.92;;;;;;;10.20;42.89;100717.72;4997945;28;20030;-68
2021/05/14 07:54:31;;;;;;;6.95;1.92;;;;;;;10.40;43.34;100713.44;4981422;28;20042;-68
2021/05/14 07:56:57;;;;;;;10.65;2.30;;;;;;;10.40;43.07;100714.28;5002340;28;20046;-68
2021/05/14 07:59:23;;;;;;;17.60;2.10;;;;;;;10.14;43.49;100717.97;4984946;28;20042;-68
2021/05/14 08:01:48;;;;;;;6.13;1.30;;;;;;;10.02;43.91;100713.25;4986182;28;20035;-69
2021/05/14 08:04:14;;;;;;;12.27;2.45;;;;;;;10.22;43.19;100715.91;4985144;28;20069;-68
2021/05/14 08:06:39;;;;;;;13.43;3.17;;;;;;;9.83;44.30;100712.28;4997222;28;20038;-69
2021/05/14 08:09:08;;;;;;;6.50;2.03;;;;;;;10.19;43.00;100716.03;5002477;28;20038;-68
2021/05/14 08:11:34;;;;;;;8.63;2.58;;;;;;;10.49;43.52;100720.91;4986032;28;20034;-68
2021/05/14 08:14:00;;;;;;;6.22;2.00;;;;;;;10.24;43.39;100722.84;4985897;28;20096;-69
2021/05/14 08:16:25;;;;;;;14.88;2.35;;;;;;;10.58;42.61;100723.13;4986291;28;20038;-69
2021/05/14 08:18:51;;;;;;;7.57;2.35;;;;;;;10.97;41.79;100713.63;4985600;28;20034;-69
2021/05/14 08:21:20;;;;;;;8.98;2.28;;;;;;;10.76;42.80;100710.19;4983121;28;20468;-70
2021/05/14 08:23:45;;;;;;;13.27;2.50;;;;;;;10.97;42.38;100717.13;4985058;28;20045;-69
2021/05/14 08:26:12;;;;;;;12.73;2.75;;;;;;;11.08;42.49;100713.16;4980786;28;20030;-67
2021/05/14 08:28:38;;;;;;;11.10;2.50;;;;;;;11.45;41.22;100717.59;4984264;28;20085;-68
2021/05/14 08:31:03;;;;;;;8.73;2.50;;;;;;;11.43;40.68;100717.66;4983282;28;20581;-69
2021/05/14 08:33:30;;;;;;;7.20;2.08;;;;;;;10.84;42.03;100729.03;4981728;28;20048;-69
2021/05/14 08:35:56;;;;;;;6.43;2.03;;;;;;;10.70;42.54;100713.06;4982667;28;20034;-68
2021/05/14 08:38:21;;;;;;;11.13;2.83;;;;;;;11.35;41.11;100718.91;4983845;28;20049;-69
2021/05/14 08:40:47;;;;;;;8.45;2.30;;;;;;;11.23;40.52;100715.09;4982207;28;20038;-69
2021/05/14 08:43:13;;;;;;;8.05;1.98;;;;;;;11.39;40.93;100713.47;4983761;28;20085;-69
2021/05/14 08:45:39;;;;;;;8.77;3.00;;;;;;;11.33;40.86;100713.78;4983637;28;20043;-68
2021/05/14 08:48:11;;;;;;;15.10;2.92;;;;;;;11.15;41.55;100718.06;4982050;28;20120;-69
2021/05/14 08:50:37;;;;;;;9.82;2.88;;;;;;;11.24;41.09;100711.56;4982338;28;20042;-69
2021/05/14 08:53:03;;;;;;;10.82;2.63;;;;;;;11.30;40.35;100718.28;4986819;28;20034;-72
2021/05/14 08:55:29;;;;;;;11.45;2.92;;;;;;;10.83;41.53;100717.72;4990212;28;20053;-70
2021/05/14 08:57:55;;;;;;;9.95;2.22;;;;;;;11.42;41.07;100713.34;4982942;28;20043;-68
2021/05/14 09:00:21;;;;;;;14.20;4.03;;;;;;;11.22;41.81;100723.88;4984121;28;20599;-70
2021/05/14 09:02:46;;;;;;;12.13;2.20;;;;;;;11.28;40.90;100728.81;4984892;28;20038;-69
2021/05/14 09:05:29;;;;;;;9.60;2.65;;;;;;;11.51;39.73;100725.16;4993209;28;20468;-69
2021/05/14 09:07:56;;;;;;;21.42;2.53;;;;;;;11.40;40.82;100723.03;4983878;28;20065;-69
2021/05/14 09:10:26;;;;;;;14.57;3.28;;;;;;;11.76;40.30;100719.63;4982748;28;20038;-68
2021/05/14 09:12:52;;;;;;;6.00;2.20;;;;;;;11.43;41.12;100717.66;4981995;28;20141;-71
2021/05/14 09:15:27;;;;;;;10.85;1.75;;;;;;;11.39;41.79;100726.56;4983033;28;20094;-70
2021/05/14 09:18:03;;;;;;;13.43;2.75;;;;;;;11.29;40.96;100721.84;4983328;28;20634;-69
2021/05/14 09:20:31;;;;;;;15.10;3.40;;;;;;;10.90;41.57;100728.75;4966146;28;20160;-70
2021/05/14 09:22:57;;;;;;;7.55;2.22;;;;;;;11.26;41.65;100728.03;4981437;28;20487;-69
2021/05/14 09:25:23;;;;;;;10.10;2.25;;;;;;;11.34;41.01;100722.47;4981574;28;20076;-69
2021/05/14 09:27:48;;;;;;;14.15;2.35;;;;;;;11.22;41.29;100729.94;4969350;28;20026;-69
2021/05/14 09:30:14;;;;;;;9.25;2.53;;;;;;;11.41;40.98;100735.19;4981929;28;20201;-70
2021/05/14 09:32:39;;;;;;;10.40;2.55;;;;;;;11.31;40.39;100731.31;4982739;28;20065;-68
2021/05/14 09:35:06;;;;;;;7.43;2.25;;;;;;;11.19;41.38;100740.53;4983466;28;20580;-69
2021/05/14 09:37:33;;;;;;;7.78;2.90;;;;;;;10.05;43.01;100741.84;4982570;28;20165;-69
2021/05/14 09:40:12;;;;;;;7.88;2.42;;;;;;;10.43;43.26;100734.22;4982979;28;20023;-70
2021/05/14 09:42:38;;;;;;;9.43;2.85;;;;;;;10.74;43.00;100740.75;4981729;28;20056;-68
2021/05/14 09:45:20;;;;;;;8.18;2.42;;;;;;;10.78;41.89;100737.94;4986367;28;20038;-69
2021/05/14 09:48:18;;;;;;;7.72;2.08;;;;;;;11.04;41.32;100744.69;4981741;28;20078;-69
2021/05/14 09:50:48;;;;;;;11.32;2.80;;;;;;;10.90;41.69;100741.81;4982821;28;20038;-69
2021/05/14 09:53:16;;;;;;;11.68;3.45;;;;;;;11.37;41.22;100738.84;4982299;28;20049;-69
2021/05/14 09:56:02;;;;;;;12.98;2.90;;;;;;;11.24;41.04;100741.19;4981497;28;20128;-69
2021/05/14 09:58:29;;;;;;;13.50;2.63;;;;;;;11.11;41.29;100747.06;4981355;28;20042;-69
2021/05/14 10:00:55;;;;;;;5.63;1.70;;;;;;;11.05;41.48;100750.78;4968167;28;20041;-68
2021/05/14 10:03:23;;;;;;;9.25;2.45;;;;;;;10.42;42.81;100756.03;4985603;28;20041;-70
2021/05/14 10:05:50;;;;;;;7.90;2.42;;;;;;;11.02;42.57;100754.38;4982647;28;20040;-69
2021/05/14 10:08:20;;;;;;;8.25;2.30;;;;;;;11.41;40.82;100752.66;4994813;28;20088;-69
2021/05/14 10:10:47;;;;;;;8.93;1.85;;;;;;;11.03;41.64;100745.59;4983390;28;20503;-68
2021/05/14 10:13:12;;;;;;;11.95;1.98;;;;;;;11.56;40.37;100751.13;4983749;28;20042;-68
2021/05/14 10:15:39;;;;;;;7.20;2.28;;;;;;;11.57;40.70;100751.03;4981145;28;20042;-70
2021/05/14 10:18:13;;;;;;;8.13;1.80;;;;;;;11.40;41.47;100745.75;4978711;28;20038;-69
2021/05/14 10:20:40;;;;;;;7.68;2.13;;;;;;;11.24;40.75;100742.94;4987121;28;20034;-71
2021/05/14 10:23:06;;;;;;;8.50;2.55;;;;;;;11.63;40.32;100740.28;4982825;28;20045;-71
2021/05/14 10:25:44;;;;;;;6.57;2.22;;;;;;;11.97;40.49;100738.72;4968948;28;20582;-71
2021/05/14 10:28:19;;;;;;;14.23;2.40;;;;;;;11.79;40.29;100745.69;4994879;28;20038;-69
2021/05/14 10:31:02;;;;;;;12.60;1.70;;;;;;;12.03;39.68;100732.34;4980567;28;20038;-69
2021/05/14 10:34:00;;;;;;;8.30;2.03;;;;;;;11.92;39.60;100732.03;4979659;28;20047;-70
2021/05/14 10:36:28;;;;;;;7.57;1.75;;;;;;;11.92;39.54;100739.88;4979928;28;20050;-70
2021/05/14 10:39:08;;;;;;;7.22;1.95;;;;;;;12.16;39.56;100736.06;4981030;28;20510;-70
2021/05/14 10:41:45;;;;;;;7.32;2.17;;;;;;;12.07;39.88;100734.75;4995311;28;20515;-69
2021/05/14 10:44:11;;;;;;;11.02;2.33;;;;;;;11.93;39.76;100741.56;4980775;28;20034;-70
2021/05/14 10:46:36;;;;;;;7.45;2.08;;;;;;;11.86;40.70;100730.53;4970807;28;20591;-69
2021/05/14 10:49:06;;;;;;;4.70;2.33;;;;;;;11.72;40.70;100738.16;4978434;28;20053;-70
2021/05/14 10:51:58;;;;;;;15.18;2.42;;;;;;;11.67;40.54;100726.13;4981159;28;20046;-68
2021/05/14 10:54:36;;;;;;;;;;;;;;;11.90;40.15;100734.69;4974538;28;20038;-69
2021/05/14 10:57:02;;;;;;;10.40;2.60;;;;;;;11.55;40.99;100737.16;4979319;28;19918;-68
2021/05/14 10:59:35;;;;;;;11.63;2.92;;;;;;;11.78;41.13;100736.16;4992060;28;20093;-69
2021/05/14 11:02:21;;;;;;;16.85;3.05;;;;;;;11.83;41.03;100742.00;4962742;28;20551;-68
2021/05/14 11:04:48;;;;;;;19.33;2.50;;;;;;;12.14;39.14;100735.28;4986789;28;20626;-68
2021/05/14 11:07:31;;;;;;;13.02;3.05;;;;;;;11.85;40.70;100734.91;4980357;28;21423;-69
2021/05/14 11:10:12;;;;;;;6.15;2.25;;;;;;;11.87;40.82;100733.09;4994965;28;20034;-70
2021/05/14 11:12:38;;;;;;;8.23;2.60;;;;;;;12.19;40.14;100738.53;4994498;28;20038;-69
2021/05/14 11:15:34;;;;;;;4.97;1.42;;;;;;;12.29;39.28;100731.91;4982178;28;20042;-70
2021/05/14 11:18:25;;;;;;;6.72;2.38;;;;;;;12.44;39.07;100739.94;4989489;28;20044;-69
2021/05/14 11:20:52;;;;;;;7.28;1.20;;;;;;;12.73;40.07;100738.50;4985156;28;20086;-69
2021/05/14 11:23:38;;;;;;;4.28;1.65;;;;;;;12.46;38.92;100735.47;4996093;28;20089;-70
2021/05/14 11:26:05;;;;;;;8.45;1.85;;;;;;;12.12;39.83;100747.63;4995153;28;20089;-69
2021/05/14 11:28:51;;;;;;;6.68;1.85;;;;;;;12.02;40.01;100739.38;4978879;28;20412;-68
2021/05/14 11:31:19;;;;;;;5.00;2.10;;;;;;;12.15;39.19;100744.84;4971641;28;20488;-69